sensor_id;sensor_type;location;lat;lon;timestamp;P1;durP1;ratioP1;P2;durP2;ratioP2
61505;SDS011;47366;51.916;4.574;2022-11-23T00:01:10;6.82;;;2.33;;
61505;SDS011;47366;51.916;4.574;2022-11-23T00:03:44;4.68;;;2.17;;
61505;SDS011;47366;51.916;4.574;2022-11-23T00:06:10;2.50;;;1.95;;
61505;SDS011;47366;51.916;4.574;2022-11-23T00:08:36;4.30;;;1.70;;
61505;SDS011;47366;51.916;4.574;2022-11-23T00:11:02;3.08;;;1.73;;
61505;SDS011;47366;51.916;4.574;2022-11-23T00:13:27;2.55;;;1.67;;
61505;SDS011;47366;51.916;4.574;2022-11-23T00:15:52;2.47;;;1.52;;
61505;SDS011;47366;51.916;4.574;2022-11-23T00:18:18;4.43;;;2.30;;
61505;SDS011;47366;51.916;4.574;2022-11-23T00:20:43;2.85;;;1.83;;
61505;SDS011;47366;51.916;4.574;2022-11-23T00:23:09;3.53;;;2.60;;
61505;SDS011;47366;51.916;4.574;2022-11-23T00:25:34;3.70;;;2.13;;
61505;SDS011;47366;51.916;4.574;2022-11-23T00:28:00;5.45;;;1.70;;
61505;SDS011;47366;51.916;4.574;2022-11-23T00:30:26;5.10;;;2.13;;
61505;SDS011;47366;51.916;4.574;2022-11-23T00:32:53;5.47;;;1.95;;
61505;SDS011;47366;51.916;4.574;2022-11-23T00:35:19;6.60;;;2.50;;
61505;SDS011;47366;51.916;4.574;2022-11-23T00:37:45;4.90;;;2.38;;
61505;SDS011;47366;51.916;4.574;2022-11-23T00:40:10;5.85;;;1.77;;
61505;SDS011;47366;51.916;4.574;2022-11-23T00:42:36;2.95;;;1.60;;
61505;SDS011;47366;51.916;4.574;2022-11-23T00:45:01;4.90;;;2.33;;
61505;SDS011;47366;51.916;4.574;2022-11-23T00:47:27;2.40;;;1.48;;
61505;SDS011;47366;51.916;4.574;2022-11-23T00:49:52;3.85;;;1.98;;
61505;SDS011;47366;51.916;4.574;2022-11-23T00:52:18;5.55;;;2.05;;
61505;SDS011;47366;51.916;4.574;2022-11-23T00:54:43;3.75;;;1.85;;
61505;SDS011;47366;51.916;4.574;2022-11-23T00:57:08;5.40;;;2.25;;
61505;SDS011;47366;51.916;4.574;2022-11-23T00:59:33;6.95;;;2.08;;
61505;SDS011;47366;51.916;4.574;2022-11-23T01:01:59;5.45;;;1.95;;
61505;SDS011;47366;51.916;4.574;2022-11-23T01:04:24;6.80;;;2.38;;
61505;SDS011;47366;51.916;4.574;2022-11-23T01:06:49;3.03;;;1.85;;
61505;SDS011;47366;51.916;4.574;2022-11-23T01:09:20;2.80;;;1.95;;
61505;SDS011;47366;51.916;4.574;2022-11-23T01:11:49;2.47;;;1.80;;
61505;SDS011;47366;51.916;4.574;2022-11-23T01:14:14;1.73;;;1.20;;
61505;SDS011;47366;51.916;4.574;2022-11-23T01:16:41;3.28;;;1.58;;
61505;SDS011;47366;51.916;4.574;2022-11-23T01:19:08;3.33;;;1.63;;
61505;SDS011;47366;51.916;4.574;2022-11-23T01:21:36;2.17;;;1.38;;
61505;SDS011;47366;51.916;4.574;2022-11-23T01:24:08;1.95;;;1.08;;
61505;SDS011;47366;51.916;4.574;2022-11-23T01:26:39;1.30;;;0.90;;
61505;SDS011;47366;51.916;4.574;2022-11-23T01:29:05;3.40;;;1.38;;
61505;SDS011;47366;51.916;4.574;2022-11-23T01:31:31;1.55;;;1.20;;
61505;SDS011;47366;51.916;4.574;2022-11-23T01:33:57;5.32;;;1.58;;
61505;SDS011;47366;51.916;4.574;2022-11-23T01:36:26;2.60;;;1.40;;
61505;SDS011;47366;51.916;4.574;2022-11-23T01:38:53;2.58;;;1.33;;
61505;SDS011;47366;51.916;4.574;2022-11-23T01:41:20;4.55;;;1.75;;
61505;SDS011;47366;51.916;4.574;2022-11-23T01:43:47;2.00;;;1.23;;
61505;SDS011;47366;51.916;4.574;2022-11-23T01:46:14;3.92;;;1.05;;
61505;SDS011;47366;51.916;4.574;2022-11-23T01:48:41;6.53;;;2.30;;
61505;SDS011;47366;51.916;4.574;2022-11-23T01:51:12;3.47;;;1.33;;
61505;SDS011;47366;51.916;4.574;2022-11-23T01:53:39;1.83;;;0.77;;
61505;SDS011;47366;51.916;4.574;2022-11-23T01:56:06;1.50;;;0.88;;
61505;SDS011;47366;51.916;4.574;2022-11-23T01:58:35;2.00;;;1.15;;
61505;SDS011;47366;51.916;4.574;2022-11-23T02:01:04;8.50;;;1.70;;
61505;SDS011;47366;51.916;4.574;2022-11-23T02:03:31;2.38;;;1.55;;
61505;SDS011;47366;51.916;4.574;2022-11-23T02:06:00;4.35;;;1.33;;
61505;SDS011;47366;51.916;4.574;2022-11-23T02:08:28;3.83;;;1.58;;
61505;SDS011;47366;51.916;4.574;2022-11-23T02:10:55;2.50;;;0.85;;
61505;SDS011;47366;51.916;4.574;2022-11-23T02:13:22;1.50;;;0.93;;
61505;SDS011;47366;51.916;4.574;2022-11-23T02:15:49;3.30;;;1.20;;
61505;SDS011;47366;51.916;4.574;2022-11-23T02:18:18;6.28;;;1.40;;
61505;SDS011;47366;51.916;4.574;2022-11-23T02:20:47;3.70;;;1.20;;
61505;SDS011;47366;51.916;4.574;2022-11-23T02:26:13;3.33;;;0.98;;
61505;SDS011;47366;51.916;4.574;2022-11-23T02:28:46;1.55;;;0.98;;
61505;SDS011;47366;51.916;4.574;2022-11-23T02:31:16;3.90;;;1.80;;
61505;SDS011;47366;51.916;4.574;2022-11-23T02:33:41;5.05;;;2.15;;
61505;SDS011;47366;51.916;4.574;2022-11-23T02:46:58;3.60;;;1.80;;
61505;SDS011;47366;51.916;4.574;2022-11-23T02:49:24;3.70;;;1.95;;
61505;SDS011;47366;51.916;4.574;2022-11-23T02:51:50;2.75;;;1.77;;
61505;SDS011;47366;51.916;4.574;2022-11-23T02:54:15;3.95;;;2.03;;
61505;SDS011;47366;51.916;4.574;2022-11-23T02:56:41;1.88;;;1.42;;
61505;SDS011;47366;51.916;4.574;2022-11-23T02:59:06;2.72;;;1.75;;
61505;SDS011;47366;51.916;4.574;2022-11-23T03:01:32;3.40;;;2.03;;
61505;SDS011;47366;51.916;4.574;2022-11-23T03:03:57;2.47;;;1.90;;
61505;SDS011;47366;51.916;4.574;2022-11-23T03:06:23;2.83;;;1.90;;
61505;SDS011;47366;51.916;4.574;2022-11-23T03:08:48;2.28;;;1.77;;
61505;SDS011;47366;51.916;4.574;2022-11-23T03:11:13;3.45;;;2.33;;
61505;SDS011;47366;51.916;4.574;2022-11-23T03:13:38;8.10;;;3.08;;
61505;SDS011;47366;51.916;4.574;2022-11-23T03:16:04;3.00;;;2.15;;
61505;SDS011;47366;51.916;4.574;2022-11-23T03:18:30;5.45;;;1.75;;
61505;SDS011;47366;51.916;4.574;2022-11-23T03:21:00;4.32;;;2.10;;
61505;SDS011;47366;51.916;4.574;2022-11-23T03:23:27;6.38;;;2.78;;
61505;SDS011;47366;51.916;4.574;2022-11-23T03:25:58;5.72;;;1.98;;
61505;SDS011;47366;51.916;4.574;2022-11-23T03:28:23;8.20;;;2.70;;
61505;SDS011;47366;51.916;4.574;2022-11-23T03:30:49;2.33;;;1.90;;
61505;SDS011;47366;51.916;4.574;2022-11-23T03:33:14;3.22;;;1.48;;
61505;SDS011;47366;51.916;4.574;2022-11-23T03:35:40;2.03;;;1.55;;
61505;SDS011;47366;51.916;4.574;2022-11-23T03:38:05;2.65;;;1.55;;
61505;SDS011;47366;51.916;4.574;2022-11-23T03:40:30;3.65;;;2.17;;
61505;SDS011;47366;51.916;4.574;2022-11-23T03:42:56;1.02;;;0.82;;
61505;SDS011;47366;51.916;4.574;2022-11-23T03:45:21;1.88;;;1.30;;
61505;SDS011;47366;51.916;4.574;2022-11-23T03:47:46;1.83;;;1.17;;
61505;SDS011;47366;51.916;4.574;2022-11-23T03:50:12;1.10;;;1.00;;
61505;SDS011;47366;51.916;4.574;2022-11-23T03:52:37;2.70;;;1.63;;
61505;SDS011;47366;51.916;4.574;2022-11-23T03:55:03;2.40;;;1.27;;
61505;SDS011;47366;51.916;4.574;2022-11-23T03:57:28;2.40;;;1.48;;
61505;SDS011;47366;51.916;4.574;2022-11-23T03:59:53;1.27;;;1.05;;
61505;SDS011;47366;51.916;4.574;2022-11-23T04:02:19;7.55;;;2.28;;
61505;SDS011;47366;51.916;4.574;2022-11-23T04:04:44;2.15;;;1.80;;
61505;SDS011;47366;51.916;4.574;2022-11-23T04:07:09;2.33;;;1.48;;
61505;SDS011;47366;51.916;4.574;2022-11-23T04:09:35;7.03;;;2.10;;
61505;SDS011;47366;51.916;4.574;2022-11-23T04:12:00;3.17;;;1.95;;
61505;SDS011;47366;51.916;4.574;2022-11-23T04:14:25;3.60;;;2.17;;
61505;SDS011;47366;51.916;4.574;2022-11-23T04:16:51;7.72;;;2.30;;
61505;SDS011;47366;51.916;4.574;2022-11-23T04:19:16;5.20;;;2.25;;
61505;SDS011;47366;51.916;4.574;2022-11-23T04:21:41;3.22;;;1.80;;
61505;SDS011;47366;51.916;4.574;2022-11-23T04:24:07;6.35;;;1.75;;
61505;SDS011;47366;51.916;4.574;2022-11-23T04:26:32;3.15;;;2.03;;
61505;SDS011;47366;51.916;4.574;2022-11-23T04:28:57;4.50;;;1.70;;
61505;SDS011;47366;51.916;4.574;2022-11-23T04:31:23;5.57;;;1.55;;
61505;SDS011;47366;51.916;4.574;2022-11-23T04:33:48;3.35;;;1.60;;
61505;SDS011;47366;51.916;4.574;2022-11-23T04:36:13;1.75;;;1.10;;
61505;SDS011;47366;51.916;4.574;2022-11-23T04:38:39;3.65;;;1.60;;
61505;SDS011;47366;51.916;4.574;2022-11-23T04:41:04;1.92;;;1.42;;
61505;SDS011;47366;51.916;4.574;2022-11-23T04:43:29;4.60;;;1.73;;
61505;SDS011;47366;51.916;4.574;2022-11-23T04:45:55;4.35;;;1.77;;
61505;SDS011;47366;51.916;4.574;2022-11-23T04:48:21;2.13;;;1.13;;
61505;SDS011;47366;51.916;4.574;2022-11-23T04:50:47;1.27;;;1.08;;
61505;SDS011;47366;51.916;4.574;2022-11-23T04:53:12;5.20;;;2.00;;
61505;SDS011;47366;51.916;4.574;2022-11-23T04:55:37;3.20;;;1.35;;
61505;SDS011;47366;51.916;4.574;2022-11-23T04:58:03;3.83;;;1.77;;
61505;SDS011;47366;51.916;4.574;2022-11-23T05:00:28;2.05;;;1.15;;
61505;SDS011;47366;51.916;4.574;2022-11-23T05:02:54;1.63;;;1.00;;
61505;SDS011;47366;51.916;4.574;2022-11-23T05:05:19;2.33;;;1.70;;
61505;SDS011;47366;51.916;4.574;2022-11-23T05:07:44;1.70;;;1.25;;
61505;SDS011;47366;51.916;4.574;2022-11-23T05:10:10;3.13;;;1.98;;
61505;SDS011;47366;51.916;4.574;2022-11-23T05:12:35;5.18;;;2.05;;
61505;SDS011;47366;51.916;4.574;2022-11-23T05:15:01;3.92;;;2.17;;
61505;SDS011;47366;51.916;4.574;2022-11-23T05:17:28;26.00;;;1.88;;
61505;SDS011;47366;51.916;4.574;2022-11-23T05:19:53;4.38;;;1.48;;
61505;SDS011;47366;51.916;4.574;2022-11-23T05:22:20;8.18;;;2.50;;
61505;SDS011;47366;51.916;4.574;2022-11-23T05:24:45;4.40;;;1.75;;
61505;SDS011;47366;51.916;4.574;2022-11-23T05:27:10;3.35;;;1.77;;
61505;SDS011;47366;51.916;4.574;2022-11-23T05:29:36;1.95;;;1.40;;
61505;SDS011;47366;51.916;4.574;2022-11-23T05:32:01;7.85;;;1.90;;
61505;SDS011;47366;51.916;4.574;2022-11-23T05:34:27;1.52;;;1.20;;
61505;SDS011;47366;51.916;4.574;2022-11-23T05:36:52;3.50;;;1.80;;
61505;SDS011;47366;51.916;4.574;2022-11-23T05:39:17;3.83;;;1.30;;
61505;SDS011;47366;51.916;4.574;2022-11-23T05:41:43;2.92;;;1.27;;
61505;SDS011;47366;51.916;4.574;2022-11-23T05:44:08;2.03;;;1.33;;
61505;SDS011;47366;51.916;4.574;2022-11-23T05:46:33;3.88;;;1.15;;
61505;SDS011;47366;51.916;4.574;2022-11-23T05:48:59;0.82;;;0.75;;
61505;SDS011;47366;51.916;4.574;2022-11-23T05:51:24;3.35;;;0.80;;
61505;SDS011;47366;51.916;4.574;2022-11-23T05:53:49;1.00;;;0.60;;
61505;SDS011;47366;51.916;4.574;2022-11-23T05:56:15;3.20;;;0.80;;
61505;SDS011;47366;51.916;4.574;2022-11-23T05:58:40;1.15;;;0.35;;
61505;SDS011;47366;51.916;4.574;2022-11-23T06:01:05;0.88;;;0.47;;
61505;SDS011;47366;51.916;4.574;2022-11-23T06:03:31;2.60;;;0.90;;
61505;SDS011;47366;51.916;4.574;2022-11-23T06:05:56;0.57;;;0.32;;
61505;SDS011;47366;51.916;4.574;2022-11-23T06:08:21;2.78;;;0.45;;
61505;SDS011;47366;51.916;4.574;2022-11-23T06:10:46;2.97;;;0.60;;
61505;SDS011;47366;51.916;4.574;2022-11-23T06:13:12;1.85;;;0.82;;
61505;SDS011;47366;51.916;4.574;2022-11-23T06:15:37;5.22;;;0.82;;
61505;SDS011;47366;51.916;4.574;2022-11-23T06:18:02;2.78;;;0.82;;
61505;SDS011;47366;51.916;4.574;2022-11-23T06:20:28;1.02;;;0.52;;
61505;SDS011;47366;51.916;4.574;2022-11-23T06:22:54;5.15;;;1.02;;
61505;SDS011;47366;51.916;4.574;2022-11-23T06:25:20;2.33;;;0.93;;
61505;SDS011;47366;51.916;4.574;2022-11-23T06:27:55;1.80;;;0.60;;
61505;SDS011;47366;51.916;4.574;2022-11-23T06:30:22;2.72;;;0.65;;
61505;SDS011;47366;51.916;4.574;2022-11-23T06:32:48;0.60;;;0.17;;
61505;SDS011;47366;51.916;4.574;2022-11-23T06:35:13;8.90;;;0.85;;
61505;SDS011;47366;51.916;4.574;2022-11-23T06:37:39;0.40;;;0.25;;
61505;SDS011;47366;51.916;4.574;2022-11-23T06:40:04;2.67;;;0.77;;
61505;SDS011;47366;51.916;4.574;2022-11-23T06:42:30;0.95;;;0.50;;
61505;SDS011;47366;51.916;4.574;2022-11-23T06:44:55;3.08;;;0.55;;
61505;SDS011;47366;51.916;4.574;2022-11-23T06:47:20;3.55;;;0.82;;
61505;SDS011;47366;51.916;4.574;2022-11-23T06:49:46;1.90;;;0.80;;
61505;SDS011;47366;51.916;4.574;2022-11-23T06:52:11;0.85;;;0.55;;
61505;SDS011;47366;51.916;4.574;2022-11-23T06:54:37;7.90;;;0.82;;
61505;SDS011;47366;51.916;4.574;2022-11-23T06:57:06;2.13;;;0.77;;
61505;SDS011;47366;51.916;4.574;2022-11-23T06:59:32;1.27;;;0.65;;
61505;SDS011;47366;51.916;4.574;2022-11-23T07:01:57;6.18;;;0.68;;
61505;SDS011;47366;51.916;4.574;2022-11-23T07:04:22;0.35;;;0.17;;
61505;SDS011;47366;51.916;4.574;2022-11-23T07:06:47;0.60;;;0.40;;
61505;SDS011;47366;51.916;4.574;2022-11-23T07:09:13;0.30;;;0.20;;
61505;SDS011;47366;51.916;4.574;2022-11-23T07:11:38;6.72;;;0.52;;
61505;SDS011;47366;51.916;4.574;2022-11-23T07:14:03;0.65;;;0.57;;
61505;SDS011;47366;51.916;4.574;2022-11-23T07:16:29;1.00;;;0.65;;
61505;SDS011;47366;51.916;4.574;2022-11-23T07:18:54;1.40;;;0.82;;
61505;SDS011;47366;51.916;4.574;2022-11-23T07:21:20;1.33;;;0.85;;
61505;SDS011;47366;51.916;4.574;2022-11-23T07:23:45;1.35;;;0.70;;
61505;SDS011;47366;51.916;4.574;2022-11-23T07:26:10;1.05;;;0.52;;
61505;SDS011;47366;51.916;4.574;2022-11-23T07:28:35;0.70;;;0.43;;
61505;SDS011;47366;51.916;4.574;2022-11-23T07:31:01;2.15;;;0.98;;
61505;SDS011;47366;51.916;4.574;2022-11-23T07:33:26;6.10;;;0.90;;
61505;SDS011;47366;51.916;4.574;2022-11-23T07:35:51;1.55;;;0.47;;
61505;SDS011;47366;51.916;4.574;2022-11-23T07:38:17;2.38;;;0.40;;
61505;SDS011;47366;51.916;4.574;2022-11-23T07:40:42;1.92;;;0.93;;
61505;SDS011;47366;51.916;4.574;2022-11-23T07:43:08;0.93;;;0.68;;
61505;SDS011;47366;51.916;4.574;2022-11-23T07:45:34;0.95;;;0.45;;
61505;SDS011;47366;51.916;4.574;2022-11-23T07:48:02;6.43;;;1.38;;
61505;SDS011;47366;51.916;4.574;2022-11-23T07:50:29;0.52;;;0.40;;
61505;SDS011;47366;51.916;4.574;2022-11-23T07:52:54;5.57;;;0.75;;
61505;SDS011;47366;51.916;4.574;2022-11-23T07:55:20;3.42;;;0.80;;
61505;SDS011;47366;51.916;4.574;2022-11-23T07:57:45;2.45;;;0.77;;
61505;SDS011;47366;51.916;4.574;2022-11-23T08:00:11;1.83;;;0.77;;
61505;SDS011;47366;51.916;4.574;2022-11-23T08:02:36;4.60;;;0.40;;
61505;SDS011;47366;51.916;4.574;2022-11-23T08:05:02;2.63;;;0.68;;
61505;SDS011;47366;51.916;4.574;2022-11-23T08:07:28;1.33;;;0.60;;
61505;SDS011;47366;51.916;4.574;2022-11-23T08:09:53;2.47;;;0.65;;
61505;SDS011;47366;51.916;4.574;2022-11-23T08:12:19;3.15;;;0.70;;
61505;SDS011;47366;51.916;4.574;2022-11-23T08:14:44;2.03;;;0.43;;
61505;SDS011;47366;51.916;4.574;2022-11-23T08:17:09;0.38;;;0.25;;
61505;SDS011;47366;51.916;4.574;2022-11-23T08:19:34;5.60;;;0.38;;
61505;SDS011;47366;51.916;4.574;2022-11-23T08:22:00;1.15;;;0.47;;
61505;SDS011;47366;51.916;4.574;2022-11-23T08:24:25;6.30;;;0.40;;
61505;SDS011;47366;51.916;4.574;2022-11-23T08:26:50;2.97;;;1.10;;
61505;SDS011;47366;51.916;4.574;2022-11-23T08:29:16;1.10;;;0.50;;
61505;SDS011;47366;51.916;4.574;2022-11-23T08:31:41;0.88;;;0.50;;
61505;SDS011;47366;51.916;4.574;2022-11-23T08:34:07;14.15;;;0.90;;
61505;SDS011;47366;51.916;4.574;2022-11-23T08:36:33;0.55;;;0.32;;
61505;SDS011;47366;51.916;4.574;2022-11-23T08:38:58;3.22;;;0.77;;
61505;SDS011;47366;51.916;4.574;2022-11-23T08:41:23;1.85;;;0.40;;
61505;SDS011;47366;51.916;4.574;2022-11-23T08:43:49;0.08;;;0.08;;
61505;SDS011;47366;51.916;4.574;2022-11-23T08:46:15;3.53;;;0.55;;
61505;SDS011;47366;51.916;4.574;2022-11-23T08:48:41;5.45;;;1.35;;
61505;SDS011;47366;51.916;4.574;2022-11-23T08:51:06;1.17;;;0.47;;
61505;SDS011;47366;51.916;4.574;2022-11-23T08:53:32;0.77;;;0.57;;
61505;SDS011;47366;51.916;4.574;2022-11-23T08:56:02;1.00;;;0.40;;
61505;SDS011;47366;51.916;4.574;2022-11-23T08:58:28;2.03;;;0.85;;
61505;SDS011;47366;51.916;4.574;2022-11-23T09:00:54;1.52;;;0.38;;
61505;SDS011;47366;51.916;4.574;2022-11-23T09:03:19;1.40;;;0.38;;
61505;SDS011;47366;51.916;4.574;2022-11-23T09:05:45;2.05;;;0.32;;
61505;SDS011;47366;51.916;4.574;2022-11-23T09:08:10;1.50;;;0.47;;
61505;SDS011;47366;51.916;4.574;2022-11-23T09:10:36;4.22;;;0.80;;
61505;SDS011;47366;51.916;4.574;2022-11-23T09:13:02;1.75;;;0.40;;
61505;SDS011;47366;51.916;4.574;2022-11-23T09:15:27;0.38;;;0.32;;
61505;SDS011;47366;51.916;4.574;2022-11-23T09:17:53;1.30;;;0.50;;
61505;SDS011;47366;51.916;4.574;2022-11-23T09:20:18;4.68;;;1.40;;
61505;SDS011;47366;51.916;4.574;2022-11-23T09:22:48;2.53;;;0.90;;
61505;SDS011;47366;51.916;4.574;2022-11-23T09:25:18;5.47;;;1.63;;
61505;SDS011;47366;51.916;4.574;2022-11-23T09:27:44;2.95;;;1.27;;
61505;SDS011;47366;51.916;4.574;2022-11-23T09:30:09;4.10;;;1.27;;
61505;SDS011;47366;51.916;4.574;2022-11-23T09:32:35;1.95;;;0.50;;
61505;SDS011;47366;51.916;4.574;2022-11-23T09:35:00;4.53;;;0.93;;
61505;SDS011;47366;51.916;4.574;2022-11-23T09:37:26;2.10;;;0.88;;
61505;SDS011;47366;51.916;4.574;2022-11-23T09:39:51;1.50;;;0.85;;
61505;SDS011;47366;51.916;4.574;2022-11-23T09:48:14;1.63;;;0.73;;
61505;SDS011;47366;51.916;4.574;2022-11-23T09:51:13;3.28;;;0.85;;
61505;SDS011;47366;51.916;4.574;2022-11-23T09:56:28;3.85;;;1.17;;
61505;SDS011;47366;51.916;4.574;2022-11-23T09:58:57;2.75;;;0.50;;
61505;SDS011;47366;51.916;4.574;2022-11-23T10:01:25;1.63;;;0.50;;
61505;SDS011;47366;51.916;4.574;2022-11-23T10:03:51;4.97;;;1.10;;
61505;SDS011;47366;51.916;4.574;2022-11-23T10:06:24;3.45;;;0.85;;
61505;SDS011;47366;51.916;4.574;2022-11-23T10:22:56;0.80;;;0.57;;
61505;SDS011;47366;51.916;4.574;2022-11-23T10:24:54;3.97;;;1.48;;
61505;SDS011;47366;51.916;4.574;2022-11-23T10:27:20;0.63;;;0.32;;
61505;SDS011;47366;51.916;4.574;2022-11-23T10:29:48;2.53;;;1.00;;
61505;SDS011;47366;51.916;4.574;2022-11-23T10:35:04;3.15;;;0.90;;
61505;SDS011;47366;51.916;4.574;2022-11-23T10:37:35;0.50;;;0.50;;
61505;SDS011;47366;51.916;4.574;2022-11-23T10:40:08;6.00;;;1.20;;
61505;SDS011;47366;51.916;4.574;2022-11-23T10:42:37;1.88;;;0.82;;
61505;SDS011;47366;51.916;4.574;2022-11-23T10:45:21;2.38;;;0.65;;
61505;SDS011;47366;51.916;4.574;2022-11-23T10:47:49;2.47;;;0.85;;
61505;SDS011;47366;51.916;4.574;2022-11-23T10:50:24;2.33;;;1.02;;
61505;SDS011;47366;51.916;4.574;2022-11-23T10:52:55;2.50;;;0.70;;
61505;SDS011;47366;51.916;4.574;2022-11-23T10:55:25;1.10;;;0.80;;
61505;SDS011;47366;51.916;4.574;2022-11-23T10:57:53;2.08;;;1.20;;
61505;SDS011;47366;51.916;4.574;2022-11-23T11:00:19;2.53;;;0.93;;
61505;SDS011;47366;51.916;4.574;2022-11-23T11:02:50;3.38;;;1.02;;
61505;SDS011;47366;51.916;4.574;2022-11-23T11:07:50;6.40;;;0.88;;
61505;SDS011;47366;51.916;4.574;2022-11-23T11:12:59;7.32;;;0.80;;
61505;SDS011;47366;51.916;4.574;2022-11-23T11:15:25;2.28;;;1.10;;
61505;SDS011;47366;51.916;4.574;2022-11-23T11:17:57;0.73;;;0.32;;
61505;SDS011;47366;51.916;4.574;2022-11-23T11:22:51;3.40;;;0.63;;
61505;SDS011;47366;51.916;4.574;2022-11-23T11:27:57;1.45;;;0.60;;
61505;SDS011;47366;51.916;4.574;2022-11-23T11:30:24;2.03;;;0.57;;
61505;SDS011;47366;51.916;4.574;2022-11-23T11:38:18;4.75;;;0.55;;
61505;SDS011;47366;51.916;4.574;2022-11-23T11:40:49;7.70;;;0.88;;
61505;SDS011;47366;51.916;4.574;2022-11-23T11:45:59;1.35;;;0.70;;
61505;SDS011;47366;51.916;4.574;2022-11-23T11:48:36;2.08;;;0.88;;
61505;SDS011;47366;51.916;4.574;2022-11-23T11:51:20;2.28;;;0.77;;
61505;SDS011;47366;51.916;4.574;2022-11-23T11:59:11;2.25;;;0.82;;
61505;SDS011;47366;51.916;4.574;2022-11-23T12:07:04;0.57;;;0.38;;
61505;SDS011;47366;51.916;4.574;2022-11-23T12:09:39;1.52;;;0.93;;
61505;SDS011;47366;51.916;4.574;2022-11-23T12:12:13;0.85;;;0.52;;
61505;SDS011;47366;51.916;4.574;2022-11-23T12:14:41;4.05;;;1.30;;
61505;SDS011;47366;51.916;4.574;2022-11-23T12:17:17;3.53;;;0.82;;
61505;SDS011;47366;51.916;4.574;2022-11-23T12:20:15;3.83;;;0.60;;
61505;SDS011;47366;51.916;4.574;2022-11-23T12:25:32;0.93;;;0.70;;
61505;SDS011;47366;51.916;4.574;2022-11-23T12:28:21;4.68;;;0.50;;
61505;SDS011;47366;51.916;4.574;2022-11-23T12:33:31;0.25;;;0.25;;
61505;SDS011;47366;51.916;4.574;2022-11-23T12:36:15;0.68;;;0.55;;
61505;SDS011;47366;51.916;4.574;2022-11-23T12:38:55;3.10;;;0.60;;
61505;SDS011;47366;51.916;4.574;2022-11-23T12:54:31;2.65;;;0.63;;
61505;SDS011;47366;51.916;4.574;2022-11-23T12:57:11;2.30;;;0.47;;
61505;SDS011;47366;51.916;4.574;2022-11-23T12:59:43;4.13;;;0.82;;
61505;SDS011;47366;51.916;4.574;2022-11-23T13:05:41;4.32;;;0.88;;
61505;SDS011;47366;51.916;4.574;2022-11-23T13:13:48;6.75;;;0.40;;
61505;SDS011;47366;51.916;4.574;2022-11-23T13:21:53;0.65;;;0.35;;
61505;SDS011;47366;51.916;4.574;2022-11-23T13:24:23;1.15;;;0.65;;
61505;SDS011;47366;51.916;4.574;2022-11-23T13:27:27;9.52;;;0.98;;
61505;SDS011;47366;51.916;4.574;2022-11-23T13:40:22;0.73;;;0.60;;
61505;SDS011;47366;51.916;4.574;2022-11-23T13:42:49;5.78;;;0.60;;
61505;SDS011;47366;51.916;4.574;2022-11-23T13:50:28;0.10;;;0.10;;
61505;SDS011;47366;51.916;4.574;2022-11-23T13:52:54;2.03;;;0.45;;
61505;SDS011;47366;51.916;4.574;2022-11-23T13:55:20;2.65;;;0.65;;
61505;SDS011;47366;51.916;4.574;2022-11-23T14:00:47;0.40;;;0.30;;
61505;SDS011;47366;51.916;4.574;2022-11-23T14:09:15;1.15;;;0.63;;
61505;SDS011;47366;51.916;4.574;2022-11-23T14:11:50;3.80;;;0.52;;
61505;SDS011;47366;51.916;4.574;2022-11-23T14:14:20;0.88;;;0.60;;
61505;SDS011;47366;51.916;4.574;2022-11-23T14:20:04;1.45;;;0.70;;
61505;SDS011;47366;51.916;4.574;2022-11-23T14:31:03;2.35;;;0.80;;
61505;SDS011;47366;51.916;4.574;2022-11-23T14:36:30;0.95;;;0.60;;
61505;SDS011;47366;51.916;4.574;2022-11-23T14:42:00;1.45;;;0.70;;
61505;SDS011;47366;51.916;4.574;2022-11-23T14:44:28;0.38;;;0.28;;
61505;SDS011;47366;51.916;4.574;2022-11-23T14:47:03;2.25;;;1.00;;
61505;SDS011;47366;51.916;4.574;2022-11-23T14:49:30;0.90;;;0.43;;
61505;SDS011;47366;51.916;4.574;2022-11-23T14:51:56;0.57;;;0.40;;
61505;SDS011;47366;51.916;4.574;2022-11-23T14:54:22;1.00;;;0.60;;
61505;SDS011;47366;51.916;4.574;2022-11-23T14:56:49;0.68;;;0.45;;
61505;SDS011;47366;51.916;4.574;2022-11-23T14:59:19;0.43;;;0.43;;
61505;SDS011;47366;51.916;4.574;2022-11-23T15:01:50;1.48;;;0.25;;
61505;SDS011;47366;51.916;4.574;2022-11-23T15:04:29;1.30;;;0.50;;
61505;SDS011;47366;51.916;4.574;2022-11-23T15:07:23;1.70;;;0.65;;
61505;SDS011;47366;51.916;4.574;2022-11-23T15:09:54;4.53;;;0.85;;
61505;SDS011;47366;51.916;4.574;2022-11-23T15:14:50;3.13;;;1.08;;
61505;SDS011;47366;51.916;4.574;2022-11-23T15:17:18;1.52;;;0.50;;
61505;SDS011;47366;51.916;4.574;2022-11-23T15:19:52;0.88;;;0.45;;
61505;SDS011;47366;51.916;4.574;2022-11-23T15:22:24;1.20;;;0.63;;
61505;SDS011;47366;51.916;4.574;2022-11-23T15:24:51;3.85;;;1.02;;
61505;SDS011;47366;51.916;4.574;2022-11-23T15:27:26;1.02;;;0.68;;
61505;SDS011;47366;51.916;4.574;2022-11-23T15:29:53;1.85;;;1.08;;
61505;SDS011;47366;51.916;4.574;2022-11-23T15:32:28;5.32;;;1.50;;
61505;SDS011;47366;51.916;4.574;2022-11-23T15:34:55;0.65;;;0.60;;
61505;SDS011;47366;51.916;4.574;2022-11-23T15:37:23;1.45;;;0.55;;
61505;SDS011;47366;51.916;4.574;2022-11-23T15:39:51;3.83;;;1.08;;
61505;SDS011;47366;51.916;4.574;2022-11-23T15:42:19;1.65;;;0.60;;
61505;SDS011;47366;51.916;4.574;2022-11-23T15:44:47;1.48;;;0.70;;
61505;SDS011;47366;51.916;4.574;2022-11-23T15:47:14;2.85;;;0.70;;
61505;SDS011;47366;51.916;4.574;2022-11-23T15:49:44;3.72;;;0.80;;
61505;SDS011;47366;51.916;4.574;2022-11-23T15:52:12;0.90;;;0.70;;
61505;SDS011;47366;51.916;4.574;2022-11-23T15:54:40;1.35;;;0.60;;
61505;SDS011;47366;51.916;4.574;2022-11-23T15:57:06;0.70;;;0.60;;
61505;SDS011;47366;51.916;4.574;2022-11-23T15:59:44;1.58;;;0.90;;
61505;SDS011;47366;51.916;4.574;2022-11-23T16:02:14;0.73;;;0.60;;
61505;SDS011;47366;51.916;4.574;2022-11-23T16:04:46;0.95;;;0.65;;
61505;SDS011;47366;51.916;4.574;2022-11-23T16:07:25;1.02;;;0.68;;
61505;SDS011;47366;51.916;4.574;2022-11-23T16:10:01;1.23;;;0.82;;
61505;SDS011;47366;51.916;4.574;2022-11-23T16:12:32;1.98;;;1.00;;
61505;SDS011;47366;51.916;4.574;2022-11-23T16:18:17;0.88;;;0.68;;
61505;SDS011;47366;51.916;4.574;2022-11-23T16:20:46;1.65;;;0.68;;
61505;SDS011;47366;51.916;4.574;2022-11-23T16:23:22;0.90;;;0.60;;
61505;SDS011;47366;51.916;4.574;2022-11-23T16:26:03;0.70;;;0.68;;
61505;SDS011;47366;51.916;4.574;2022-11-23T16:28:33;0.73;;;0.63;;
61505;SDS011;47366;51.916;4.574;2022-11-23T16:31:02;2.05;;;0.98;;
61505;SDS011;47366;51.916;4.574;2022-11-23T16:33:27;0.70;;;0.55;;
61505;SDS011;47366;51.916;4.574;2022-11-23T16:35:54;5.57;;;0.93;;
61505;SDS011;47366;51.916;4.574;2022-11-23T16:38:20;1.95;;;0.82;;
61505;SDS011;47366;51.916;4.574;2022-11-23T16:40:45;1.92;;;0.93;;
61505;SDS011;47366;51.916;4.574;2022-11-23T16:43:14;1.08;;;0.77;;
61505;SDS011;47366;51.916;4.574;2022-11-23T16:45:42;1.85;;;0.82;;
61505;SDS011;47366;51.916;4.574;2022-11-23T16:50:50;0.82;;;0.73;;
61505;SDS011;47366;51.916;4.574;2022-11-23T16:53:16;0.50;;;0.50;;
61505;SDS011;47366;51.916;4.574;2022-11-23T16:55:46;1.55;;;0.93;;
61505;SDS011;47366;51.916;4.574;2022-11-23T16:58:16;2.55;;;1.20;;
61505;SDS011;47366;51.916;4.574;2022-11-23T17:00:42;0.88;;;0.57;;
61505;SDS011;47366;51.916;4.574;2022-11-23T17:03:14;2.55;;;0.75;;
61505;SDS011;47366;51.916;4.574;2022-11-23T17:05:40;0.88;;;0.55;;
61505;SDS011;47366;51.916;4.574;2022-11-23T17:08:06;1.33;;;0.70;;
61505;SDS011;47366;51.916;4.574;2022-11-23T17:10:32;1.83;;;0.52;;
61505;SDS011;47366;51.916;4.574;2022-11-23T17:12:58;1.15;;;0.80;;
61505;SDS011;47366;51.916;4.574;2022-11-23T17:15:23;0.90;;;0.43;;
61505;SDS011;47366;51.916;4.574;2022-11-23T17:17:49;3.05;;;0.75;;
61505;SDS011;47366;51.916;4.574;2022-11-23T17:20:15;1.30;;;0.70;;
61505;SDS011;47366;51.916;4.574;2022-11-23T17:22:41;4.40;;;0.50;;